<?xml version="1.0" encoding="UTF-8" standalone="no" ?>
<gpx xmlns="http://www.topografix.com/GPX/1/1" xmlns:xsi="http://www.w3.org/2001/XMLSchema-instance" xsi:schemaLocation="http://www.topografix.com/GPX/1/1 http://www.topografix.com/GPX/1/1/gpx.xsd" version="1.1" creator="VisuGPX - https://www.visugpx.com">
  <metadata>
    <name>GREZIEUX LE MARCHE - RHONE - 2 MARS 26</name>
    <desc><![CDATA[POMEYS -]]></desc>
  </metadata>
  <trk>
    <name><![CDATA[Trace 1772355998000]]></name>
    <extensions>
      <line xmlns="http://www.topografix.com/GPX/gpx_style/0/2">
        <color>0000FF</color>
        <opacity>1</opacity>
        <width>4</width>
      </line>
    </extensions>
    <trkseg>
      <trkpt lat="45.65398" lon="4.41928">
        <ele>710.1</ele>
        <time>2026-03-01T09:06:38.000Z</time>
      </trkpt>
      <trkpt lat="45.65375" lon="4.41948">
        <ele>710.7</ele>
        <time>2026-03-01T09:07:38.000Z</time>
      </trkpt>
      <trkpt lat="45.65394" lon="4.42026">
        <ele>712.1</ele>
        <time>2026-03-01T09:08:38.000Z</time>
      </trkpt>
      <trkpt lat="45.65416" lon="4.42116">
        <ele>710</ele>
        <time>2026-03-01T09:09:38.000Z</time>
      </trkpt>
      <trkpt lat="45.65456" lon="4.42166">
        <ele>712.7</ele>
        <time>2026-03-01T09:10:38.000Z</time>
      </trkpt>
      <trkpt lat="45.6553" lon="4.4214">
        <ele>715.5</ele>
        <time>2026-03-01T09:11:38.000Z</time>
      </trkpt>
      <trkpt lat="45.65591" lon="4.42109">
        <ele>719.2</ele>
        <time>2026-03-01T09:12:38.000Z</time>
      </trkpt>
      <trkpt lat="45.65647" lon="4.42201">
        <ele>721.1</ele>
        <time>2026-03-01T09:13:38.000Z</time>
      </trkpt>
      <trkpt lat="45.657" lon="4.42212">
        <ele>719.2</ele>
        <time>2026-03-01T09:14:38.000Z</time>
      </trkpt>
      <trkpt lat="45.6574" lon="4.42313">
        <ele>719.1</ele>
        <time>2026-03-01T09:15:38.000Z</time>
      </trkpt>
      <trkpt lat="45.65809" lon="4.42359">
        <ele>723.7</ele>
        <time>2026-03-01T09:16:38.000Z</time>
      </trkpt>
      <trkpt lat="45.65877" lon="4.42408">
        <ele>727</ele>
        <time>2026-03-01T09:17:38.000Z</time>
      </trkpt>
      <trkpt lat="45.65941" lon="4.42479">
        <ele>726.8</ele>
        <time>2026-03-01T09:18:38.000Z</time>
      </trkpt>
      <trkpt lat="45.6601" lon="4.42545">
        <ele>729.7</ele>
        <time>2026-03-01T09:19:38.000Z</time>
      </trkpt>
      <trkpt lat="45.66088" lon="4.4259">
        <ele>731.2</ele>
        <time>2026-03-01T09:20:38.000Z</time>
      </trkpt>
      <trkpt lat="45.66163" lon="4.42617">
        <ele>728.8</ele>
        <time>2026-03-01T09:21:38.000Z</time>
      </trkpt>
      <trkpt lat="45.66245" lon="4.42639">
        <ele>725.8</ele>
        <time>2026-03-01T09:22:38.000Z</time>
      </trkpt>
      <trkpt lat="45.66324" lon="4.42673">
        <ele>723.9</ele>
        <time>2026-03-01T09:23:38.000Z</time>
      </trkpt>
      <trkpt lat="45.66403" lon="4.42714">
        <ele>724.2</ele>
        <time>2026-03-01T09:24:38.000Z</time>
      </trkpt>
      <trkpt lat="45.66481" lon="4.42746">
        <ele>719.6</ele>
        <time>2026-03-01T09:25:38.000Z</time>
      </trkpt>
      <trkpt lat="45.66558" lon="4.428">
        <ele>716.7</ele>
        <time>2026-03-01T09:26:38.000Z</time>
      </trkpt>
      <trkpt lat="45.66619" lon="4.42877">
        <ele>716.9</ele>
        <time>2026-03-01T09:27:38.000Z</time>
      </trkpt>
      <trkpt lat="45.66647" lon="4.42988">
        <ele>709.4</ele>
        <time>2026-03-01T09:28:38.000Z</time>
      </trkpt>
      <trkpt lat="45.66676" lon="4.43105">
        <ele>712.6</ele>
        <time>2026-03-01T09:29:38.000Z</time>
      </trkpt>
      <trkpt lat="45.66691" lon="4.43213">
        <ele>709.4</ele>
        <time>2026-03-01T09:30:38.000Z</time>
      </trkpt>
      <trkpt lat="45.66691" lon="4.43296">
        <ele>696.6</ele>
        <time>2026-03-01T09:31:38.000Z</time>
      </trkpt>
      <trkpt lat="45.66652" lon="4.43402">
        <ele>691.2</ele>
        <time>2026-03-01T09:32:38.000Z</time>
      </trkpt>
      <trkpt lat="45.66611" lon="4.43498">
        <ele>695.1</ele>
        <time>2026-03-01T09:33:38.000Z</time>
      </trkpt>
      <trkpt lat="45.66578" lon="4.43604">
        <ele>701.4</ele>
        <time>2026-03-01T09:34:38.000Z</time>
      </trkpt>
      <trkpt lat="45.66579" lon="4.43688">
        <ele>712</ele>
        <time>2026-03-01T09:35:38.000Z</time>
      </trkpt>
      <trkpt lat="45.66559" lon="4.43732">
        <ele>719.4</ele>
        <time>2026-03-01T09:36:38.000Z</time>
      </trkpt>
      <trkpt lat="45.66487" lon="4.4375">
        <ele>731.3</ele>
        <time>2026-03-01T09:37:38.000Z</time>
      </trkpt>
      <trkpt lat="45.66428" lon="4.43809">
        <ele>741.3</ele>
        <time>2026-03-01T09:38:38.000Z</time>
      </trkpt>
      <trkpt lat="45.66385" lon="4.43909">
        <ele>745.7</ele>
        <time>2026-03-01T09:39:38.000Z</time>
      </trkpt>
      <trkpt lat="45.66342" lon="4.43991">
        <ele>748.3</ele>
        <time>2026-03-01T09:40:38.000Z</time>
      </trkpt>
      <trkpt lat="45.66315" lon="4.44085">
        <ele>744.5</ele>
        <time>2026-03-01T09:41:38.000Z</time>
      </trkpt>
      <trkpt lat="45.66297" lon="4.4419">
        <ele>743.3</ele>
        <time>2026-03-01T09:42:38.000Z</time>
      </trkpt>
      <trkpt lat="45.66296" lon="4.44206">
        <ele>739.9</ele>
        <time>2026-03-01T09:43:38.000Z</time>
      </trkpt>
      <trkpt lat="45.6629" lon="4.44335">
        <ele>727.7</ele>
        <time>2026-03-01T09:44:38.000Z</time>
      </trkpt>
      <trkpt lat="45.66342" lon="4.44431">
        <ele>720.5</ele>
        <time>2026-03-01T09:45:38.000Z</time>
      </trkpt>
      <trkpt lat="45.66376" lon="4.44535">
        <ele>717.4</ele>
        <time>2026-03-01T09:46:38.000Z</time>
      </trkpt>
      <trkpt lat="45.66418" lon="4.44644">
        <ele>718.2</ele>
        <time>2026-03-01T09:47:38.000Z</time>
      </trkpt>
      <trkpt lat="45.66418" lon="4.44763">
        <ele>716</ele>
        <time>2026-03-01T09:48:38.000Z</time>
      </trkpt>
      <trkpt lat="45.66395" lon="4.44801">
        <ele>713</ele>
        <time>2026-03-01T09:49:38.000Z</time>
      </trkpt>
      <trkpt lat="45.66439" lon="4.44828">
        <ele>717.8</ele>
        <time>2026-03-01T09:50:38.000Z</time>
      </trkpt>
      <trkpt lat="45.66493" lon="4.44912">
        <ele>718.6</ele>
        <time>2026-03-01T09:51:38.000Z</time>
      </trkpt>
      <trkpt lat="45.6652" lon="4.45016">
        <ele>722.9</ele>
        <time>2026-03-01T09:52:38.000Z</time>
      </trkpt>
      <trkpt lat="45.66538" lon="4.45132">
        <ele>727.6</ele>
        <time>2026-03-01T09:53:38.000Z</time>
      </trkpt>
      <trkpt lat="45.66556" lon="4.45248">
        <ele>727.7</ele>
        <time>2026-03-01T09:54:38.000Z</time>
      </trkpt>
      <trkpt lat="45.66573" lon="4.45311">
        <ele>734</ele>
        <time>2026-03-01T09:55:38.000Z</time>
      </trkpt>
      <trkpt lat="45.66603" lon="4.45401">
        <ele>744.7</ele>
        <time>2026-03-01T09:56:38.000Z</time>
      </trkpt>
      <trkpt lat="45.66623" lon="4.45494">
        <ele>746.9</ele>
        <time>2026-03-01T09:57:38.000Z</time>
      </trkpt>
      <trkpt lat="45.6661" lon="4.45513">
        <ele>749.5</ele>
        <time>2026-03-01T09:58:38.000Z</time>
      </trkpt>
      <trkpt lat="45.66594" lon="4.45552">
        <ele>748</ele>
        <time>2026-03-01T09:59:38.000Z</time>
      </trkpt>
      <trkpt lat="45.66547" lon="4.4564">
        <ele>754.3</ele>
        <time>2026-03-01T10:00:38.000Z</time>
      </trkpt>
      <trkpt lat="45.66483" lon="4.45693">
        <ele>760.5</ele>
        <time>2026-03-01T10:01:38.000Z</time>
      </trkpt>
      <trkpt lat="45.66403" lon="4.45686">
        <ele>765.2</ele>
        <time>2026-03-01T10:02:38.000Z</time>
      </trkpt>
      <trkpt lat="45.66319" lon="4.45694">
        <ele>772.7</ele>
        <time>2026-03-01T10:03:38.000Z</time>
      </trkpt>
      <trkpt lat="45.66242" lon="4.457">
        <ele>778.1</ele>
        <time>2026-03-01T10:04:38.000Z</time>
      </trkpt>
      <trkpt lat="45.66218" lon="4.4579">
        <ele>781.9</ele>
        <time>2026-03-01T10:05:38.000Z</time>
      </trkpt>
      <trkpt lat="45.66187" lon="4.45878">
        <ele>787.2</ele>
        <time>2026-03-01T10:06:38.000Z</time>
      </trkpt>
      <trkpt lat="45.66147" lon="4.45968">
        <ele>794.2</ele>
        <time>2026-03-01T10:07:38.000Z</time>
      </trkpt>
      <trkpt lat="45.66087" lon="4.46054">
        <ele>795.7</ele>
        <time>2026-03-01T10:08:38.000Z</time>
      </trkpt>
      <trkpt lat="45.66033" lon="4.46141">
        <ele>793.1</ele>
        <time>2026-03-01T10:09:38.000Z</time>
      </trkpt>
      <trkpt lat="45.65982" lon="4.46229">
        <ele>784</ele>
        <time>2026-03-01T10:10:38.000Z</time>
      </trkpt>
      <trkpt lat="45.65926" lon="4.46313">
        <ele>773.1</ele>
        <time>2026-03-01T10:11:38.000Z</time>
      </trkpt>
      <trkpt lat="45.65871" lon="4.46385">
        <ele>754.3</ele>
        <time>2026-03-01T10:12:38.000Z</time>
      </trkpt>
      <trkpt lat="45.65811" lon="4.46457">
        <ele>739.6</ele>
        <time>2026-03-01T10:13:38.000Z</time>
      </trkpt>
      <trkpt lat="45.65772" lon="4.46555">
        <ele>724.9</ele>
        <time>2026-03-01T10:14:38.000Z</time>
      </trkpt>
      <trkpt lat="45.65741" lon="4.46663">
        <ele>715.8</ele>
        <time>2026-03-01T10:15:38.000Z</time>
      </trkpt>
      <trkpt lat="45.65726" lon="4.46761">
        <ele>711.5</ele>
        <time>2026-03-01T10:16:38.000Z</time>
      </trkpt>
      <trkpt lat="45.65678" lon="4.46842">
        <ele>704.4</ele>
        <time>2026-03-01T10:17:38.000Z</time>
      </trkpt>
      <trkpt lat="45.65595" lon="4.46843">
        <ele>697.7</ele>
        <time>2026-03-01T10:18:38.000Z</time>
      </trkpt>
      <trkpt lat="45.65567" lon="4.46868">
        <ele>693.1</ele>
        <time>2026-03-01T10:19:38.000Z</time>
      </trkpt>
      <trkpt lat="45.65523" lon="4.46883">
        <ele>686.4</ele>
        <time>2026-03-01T10:20:38.000Z</time>
      </trkpt>
      <trkpt lat="45.65455" lon="4.46811">
        <ele>680.7</ele>
        <time>2026-03-01T10:21:38.000Z</time>
      </trkpt>
      <trkpt lat="45.65372" lon="4.46777">
        <ele>679.3</ele>
        <time>2026-03-01T10:22:38.000Z</time>
      </trkpt>
      <trkpt lat="45.65295" lon="4.46735">
        <ele>676.1</ele>
        <time>2026-03-01T10:23:38.000Z</time>
      </trkpt>
      <trkpt lat="45.65227" lon="4.4665">
        <ele>676.4</ele>
        <time>2026-03-01T10:24:38.000Z</time>
      </trkpt>
      <trkpt lat="45.65146" lon="4.46612">
        <ele>674.6</ele>
        <time>2026-03-01T10:25:38.000Z</time>
      </trkpt>
      <trkpt lat="45.65114" lon="4.4655">
        <ele>669</ele>
        <time>2026-03-01T10:26:38.000Z</time>
      </trkpt>
      <trkpt lat="45.6519" lon="4.46529">
        <ele>673.8</ele>
        <time>2026-03-01T10:27:38.000Z</time>
      </trkpt>
      <trkpt lat="45.65262" lon="4.46524">
        <ele>682.8</ele>
        <time>2026-03-01T10:28:38.000Z</time>
      </trkpt>
      <trkpt lat="45.65334" lon="4.46509">
        <ele>687.8</ele>
        <time>2026-03-01T10:29:38.000Z</time>
      </trkpt>
      <trkpt lat="45.654" lon="4.46489">
        <ele>698.3</ele>
        <time>2026-03-01T10:30:38.000Z</time>
      </trkpt>
      <trkpt lat="45.65443" lon="4.46547">
        <ele>699.7</ele>
        <time>2026-03-01T10:31:38.000Z</time>
      </trkpt>
      <trkpt lat="45.65431" lon="4.4653">
        <ele>692.8</ele>
        <time>2026-03-01T10:33:15.000Z</time>
      </trkpt>
      <trkpt lat="45.65422" lon="4.46529">
        <ele>698.6</ele>
        <time>2026-03-01T10:34:27.000Z</time>
      </trkpt>
      <trkpt lat="45.65417" lon="4.46536">
        <ele>701.2</ele>
        <time>2026-03-01T10:45:06.000Z</time>
      </trkpt>
      <trkpt lat="45.65422" lon="4.46535">
        <ele>703.2</ele>
        <time>2026-03-01T10:46:58.000Z</time>
      </trkpt>
      <trkpt lat="45.65418" lon="4.46537">
        <ele>697.1</ele>
        <time>2026-03-01T10:51:10.000Z</time>
      </trkpt>
      <trkpt lat="45.65418" lon="4.46538">
        <ele>698.9</ele>
        <time>2026-03-01T10:52:31.000Z</time>
      </trkpt>
      <trkpt lat="45.65441" lon="4.4655">
        <ele>694</ele>
        <time>2026-03-01T10:53:31.000Z</time>
      </trkpt>
      <trkpt lat="45.65432" lon="4.46507">
        <ele>699</ele>
        <time>2026-03-01T10:54:31.000Z</time>
      </trkpt>
      <trkpt lat="45.65461" lon="4.46462">
        <ele>702.6</ele>
        <time>2026-03-01T10:55:31.000Z</time>
      </trkpt>
      <trkpt lat="45.65521" lon="4.46416">
        <ele>707.6</ele>
        <time>2026-03-01T10:56:31.000Z</time>
      </trkpt>
      <trkpt lat="45.65571" lon="4.46371">
        <ele>709.9</ele>
        <time>2026-03-01T10:57:31.000Z</time>
      </trkpt>
      <trkpt lat="45.65606" lon="4.46312">
        <ele>712</ele>
        <time>2026-03-01T10:58:31.000Z</time>
      </trkpt>
      <trkpt lat="45.65627" lon="4.46206">
        <ele>713.1</ele>
        <time>2026-03-01T10:59:31.000Z</time>
      </trkpt>
      <trkpt lat="45.6565" lon="4.46109">
        <ele>715.5</ele>
        <time>2026-03-01T11:00:31.000Z</time>
      </trkpt>
      <trkpt lat="45.65673" lon="4.46021">
        <ele>718.2</ele>
        <time>2026-03-01T11:01:31.000Z</time>
      </trkpt>
      <trkpt lat="45.65712" lon="4.45954">
        <ele>724.6</ele>
        <time>2026-03-01T11:02:31.000Z</time>
      </trkpt>
      <trkpt lat="45.6575" lon="4.45882">
        <ele>733.7</ele>
        <time>2026-03-01T11:03:31.000Z</time>
      </trkpt>
      <trkpt lat="45.65804" lon="4.45819">
        <ele>736.5</ele>
        <time>2026-03-01T11:04:31.000Z</time>
      </trkpt>
      <trkpt lat="45.65841" lon="4.45753">
        <ele>743</ele>
        <time>2026-03-01T11:05:31.000Z</time>
      </trkpt>
      <trkpt lat="45.65892" lon="4.45713">
        <ele>752.9</ele>
        <time>2026-03-01T11:06:31.000Z</time>
      </trkpt>
      <trkpt lat="45.65959" lon="4.45708">
        <ele>757.5</ele>
        <time>2026-03-01T11:07:31.000Z</time>
      </trkpt>
      <trkpt lat="45.6601" lon="4.45723">
        <ele>758.7</ele>
        <time>2026-03-01T11:08:31.000Z</time>
      </trkpt>
      <trkpt lat="45.66075" lon="4.45709">
        <ele>767.1</ele>
        <time>2026-03-01T11:09:31.000Z</time>
      </trkpt>
      <trkpt lat="45.66146" lon="4.45694">
        <ele>775.8</ele>
        <time>2026-03-01T11:10:31.000Z</time>
      </trkpt>
      <trkpt lat="45.66156" lon="4.45627">
        <ele>775.6</ele>
        <time>2026-03-01T11:11:31.000Z</time>
      </trkpt>
      <trkpt lat="45.66112" lon="4.45528">
        <ele>777</ele>
        <time>2026-03-01T11:12:31.000Z</time>
      </trkpt>
      <trkpt lat="45.66062" lon="4.45445">
        <ele>782.3</ele>
        <time>2026-03-01T11:13:31.000Z</time>
      </trkpt>
      <trkpt lat="45.66012" lon="4.45362">
        <ele>788.1</ele>
        <time>2026-03-01T11:14:31.000Z</time>
      </trkpt>
      <trkpt lat="45.65968" lon="4.45269">
        <ele>788.9</ele>
        <time>2026-03-01T11:15:31.000Z</time>
      </trkpt>
      <trkpt lat="45.65891" lon="4.45286">
        <ele>793.7</ele>
        <time>2026-03-01T11:16:31.000Z</time>
      </trkpt>
      <trkpt lat="45.65862" lon="4.45288">
        <ele>794.1</ele>
        <time>2026-03-01T11:17:31.000Z</time>
      </trkpt>
      <trkpt lat="45.65861" lon="4.4529">
        <ele>792.4</ele>
        <time>2026-03-01T11:18:43.000Z</time>
      </trkpt>
      <trkpt lat="45.65937" lon="4.4528">
        <ele>791.3</ele>
        <time>2026-03-01T11:19:43.000Z</time>
      </trkpt>
      <trkpt lat="45.66" lon="4.45251">
        <ele>786.8</ele>
        <time>2026-03-01T11:20:43.000Z</time>
      </trkpt>
      <trkpt lat="45.66046" lon="4.45164">
        <ele>780.5</ele>
        <time>2026-03-01T11:21:43.000Z</time>
      </trkpt>
      <trkpt lat="45.66068" lon="4.4506">
        <ele>779.2</ele>
        <time>2026-03-01T11:22:43.000Z</time>
      </trkpt>
      <trkpt lat="45.66092" lon="4.44956">
        <ele>775.1</ele>
        <time>2026-03-01T11:23:43.000Z</time>
      </trkpt>
      <trkpt lat="45.66124" lon="4.4485">
        <ele>767.9</ele>
        <time>2026-03-01T11:24:43.000Z</time>
      </trkpt>
      <trkpt lat="45.66083" lon="4.44781">
        <ele>777.4</ele>
        <time>2026-03-01T11:25:43.000Z</time>
      </trkpt>
      <trkpt lat="45.66029" lon="4.44761">
        <ele>794.6</ele>
        <time>2026-03-01T11:26:43.000Z</time>
      </trkpt>
      <trkpt lat="45.65991" lon="4.44708">
        <ele>795.4</ele>
        <time>2026-03-01T11:27:43.000Z</time>
      </trkpt>
      <trkpt lat="45.65955" lon="4.4461">
        <ele>797.3</ele>
        <time>2026-03-01T11:28:43.000Z</time>
      </trkpt>
      <trkpt lat="45.65899" lon="4.44549">
        <ele>798.8</ele>
        <time>2026-03-01T11:29:43.000Z</time>
      </trkpt>
      <trkpt lat="45.65835" lon="4.44529">
        <ele>789.7</ele>
        <time>2026-03-01T11:30:43.000Z</time>
      </trkpt>
      <trkpt lat="45.65764" lon="4.44536">
        <ele>805</ele>
        <time>2026-03-01T11:31:43.000Z</time>
      </trkpt>
      <trkpt lat="45.65697" lon="4.4455">
        <ele>812.6</ele>
        <time>2026-03-01T11:32:43.000Z</time>
      </trkpt>
      <trkpt lat="45.65645" lon="4.44603">
        <ele>802.7</ele>
        <time>2026-03-01T11:33:43.000Z</time>
      </trkpt>
      <trkpt lat="45.65625" lon="4.44596">
        <ele>803.8</ele>
        <time>2026-03-01T11:34:43.000Z</time>
      </trkpt>
      <trkpt lat="45.65648" lon="4.44573">
        <ele>805.5</ele>
        <time>2026-03-01T11:35:43.000Z</time>
      </trkpt>
      <trkpt lat="45.65653" lon="4.44484">
        <ele>815</ele>
        <time>2026-03-01T11:36:43.000Z</time>
      </trkpt>
      <trkpt lat="45.65587" lon="4.4444">
        <ele>824</ele>
        <time>2026-03-01T11:37:43.000Z</time>
      </trkpt>
      <trkpt lat="45.65522" lon="4.4441">
        <ele>821</ele>
        <time>2026-03-01T11:38:43.000Z</time>
      </trkpt>
      <trkpt lat="45.65474" lon="4.44332">
        <ele>823.8</ele>
        <time>2026-03-01T11:39:43.000Z</time>
      </trkpt>
      <trkpt lat="45.65429" lon="4.4425">
        <ele>813.3</ele>
        <time>2026-03-01T11:40:43.000Z</time>
      </trkpt>
      <trkpt lat="45.65389" lon="4.44161">
        <ele>810.3</ele>
        <time>2026-03-01T11:41:43.000Z</time>
      </trkpt>
      <trkpt lat="45.65366" lon="4.44056">
        <ele>810.1</ele>
        <time>2026-03-01T11:42:43.000Z</time>
      </trkpt>
      <trkpt lat="45.65309" lon="4.43979">
        <ele>807.3</ele>
        <time>2026-03-01T11:43:43.000Z</time>
      </trkpt>
      <trkpt lat="45.65251" lon="4.43913">
        <ele>802.5</ele>
        <time>2026-03-01T11:44:43.000Z</time>
      </trkpt>
      <trkpt lat="45.65214" lon="4.43825">
        <ele>802.9</ele>
        <time>2026-03-01T11:45:43.000Z</time>
      </trkpt>
      <trkpt lat="45.65157" lon="4.43752">
        <ele>790.8</ele>
        <time>2026-03-01T11:46:43.000Z</time>
      </trkpt>
      <trkpt lat="45.65149" lon="4.43701">
        <ele>781.7</ele>
        <time>2026-03-01T11:47:43.000Z</time>
      </trkpt>
      <trkpt lat="45.65206" lon="4.43627">
        <ele>778.7</ele>
        <time>2026-03-01T11:48:43.000Z</time>
      </trkpt>
      <trkpt lat="45.65238" lon="4.43529">
        <ele>763.8</ele>
        <time>2026-03-01T11:49:43.000Z</time>
      </trkpt>
      <trkpt lat="45.65238" lon="4.43464">
        <ele>766.3</ele>
        <time>2026-03-01T11:50:43.000Z</time>
      </trkpt>
      <trkpt lat="45.65243" lon="4.43369">
        <ele>697.1</ele>
        <extensions>
          <visugpx:TrkExtension xmlns:visugpx="https://www.visugpx.com/editgpx/">
            <visugpx:node>1</visugpx:node>
            </visugpx:TrkExtension>
        </extensions>
      </trkpt>
      <trkpt lat="45.65081" lon="4.43262">
        <ele>692.2</ele>
        <extensions>
          <visugpx:TrkExtension xmlns:visugpx="https://www.visugpx.com/editgpx/">
            <visugpx:node>2</visugpx:node>
            </visugpx:TrkExtension>
        </extensions>
      </trkpt>
      <trkpt lat="45.65072" lon="4.4312">
        <ele>680.6</ele>
        <extensions>
          <visugpx:TrkExtension xmlns:visugpx="https://www.visugpx.com/editgpx/">
            <visugpx:node>3</visugpx:node>
            </visugpx:TrkExtension>
        </extensions>
      </trkpt>
      <trkpt lat="45.6484" lon="4.4297">
        <ele>679.9</ele>
        <extensions>
          <visugpx:TrkExtension xmlns:visugpx="https://www.visugpx.com/editgpx/">
            <visugpx:node>4</visugpx:node>
            </visugpx:TrkExtension>
        </extensions>
      </trkpt>
      <trkpt lat="45.64871" lon="4.42882">
        <ele>674.1</ele>
        <extensions>
          <visugpx:TrkExtension xmlns:visugpx="https://www.visugpx.com/editgpx/">
            <visugpx:node>5</visugpx:node>
            </visugpx:TrkExtension>
        </extensions>
      </trkpt>
      <trkpt lat="45.64895" lon="4.42496">
        <ele>638.8</ele>
        <extensions>
          <visugpx:TrkExtension xmlns:visugpx="https://www.visugpx.com/editgpx/">
            <visugpx:node>6</visugpx:node>
            </visugpx:TrkExtension>
        </extensions>
      </trkpt>
      <trkpt lat="45.64845" lon="4.42414">
        <ele>633.7</ele>
        <extensions>
          <visugpx:TrkExtension xmlns:visugpx="https://www.visugpx.com/editgpx/">
            <visugpx:node>7</visugpx:node>
            </visugpx:TrkExtension>
        </extensions>
      </trkpt>
      <trkpt lat="45.64848" lon="4.42286">
        <ele>628.7</ele>
        <extensions>
          <visugpx:TrkExtension xmlns:visugpx="https://www.visugpx.com/editgpx/">
            <visugpx:node>8</visugpx:node>
            </visugpx:TrkExtension>
        </extensions>
      </trkpt>
      <trkpt lat="45.64793" lon="4.42193">
        <ele>624</ele>
        <extensions>
          <visugpx:TrkExtension xmlns:visugpx="https://www.visugpx.com/editgpx/">
            <visugpx:node>9</visugpx:node>
            </visugpx:TrkExtension>
        </extensions>
      </trkpt>
      <trkpt lat="45.64726" lon="4.42099">
        <ele>626.5</ele>
        <extensions>
          <visugpx:TrkExtension xmlns:visugpx="https://www.visugpx.com/editgpx/">
            <visugpx:node>10</visugpx:node>
            </visugpx:TrkExtension>
        </extensions>
      </trkpt>
      <trkpt lat="45.64715" lon="4.41966">
        <ele>628.6</ele>
        <extensions>
          <visugpx:TrkExtension xmlns:visugpx="https://www.visugpx.com/editgpx/">
            <visugpx:node>11</visugpx:node>
            </visugpx:TrkExtension>
        </extensions>
      </trkpt>
      <trkpt lat="45.64412" lon="4.41788">
        <ele>664.1</ele>
        <extensions>
          <visugpx:TrkExtension xmlns:visugpx="https://www.visugpx.com/editgpx/">
            <visugpx:node>12</visugpx:node>
            </visugpx:TrkExtension>
        </extensions>
      </trkpt>
      <trkpt lat="45.64319" lon="4.41811">
        <ele>668.1</ele>
        <extensions>
          <visugpx:TrkExtension xmlns:visugpx="https://www.visugpx.com/editgpx/">
            <visugpx:node>13</visugpx:node>
            </visugpx:TrkExtension>
        </extensions>
      </trkpt>
      <trkpt lat="45.64157" lon="4.41526">
        <ele>645.6</ele>
        <extensions>
          <visugpx:TrkExtension xmlns:visugpx="https://www.visugpx.com/editgpx/">
            <visugpx:node>14</visugpx:node>
            </visugpx:TrkExtension>
        </extensions>
      </trkpt>
      <trkpt lat="45.63944" lon="4.41432">
        <ele>614.1</ele>
        <extensions>
          <visugpx:TrkExtension xmlns:visugpx="https://www.visugpx.com/editgpx/">
            <visugpx:node>15</visugpx:node>
            </visugpx:TrkExtension>
        </extensions>
      </trkpt>
      <trkpt lat="45.64045" lon="4.41253">
        <ele>602.7</ele>
        <extensions>
          <visugpx:TrkExtension xmlns:visugpx="https://www.visugpx.com/editgpx/">
            <visugpx:node>16</visugpx:node>
            </visugpx:TrkExtension>
        </extensions>
      </trkpt>
      <trkpt lat="45.64222" lon="4.41112">
        <ele>598.1</ele>
        <extensions>
          <visugpx:TrkExtension xmlns:visugpx="https://www.visugpx.com/editgpx/">
            <visugpx:node>17</visugpx:node>
            </visugpx:TrkExtension>
        </extensions>
      </trkpt>
      <trkpt lat="45.64384" lon="4.41251">
        <ele>580.2</ele>
        <extensions>
          <visugpx:TrkExtension xmlns:visugpx="https://www.visugpx.com/editgpx/">
            <visugpx:node>18</visugpx:node>
            </visugpx:TrkExtension>
        </extensions>
      </trkpt>
      <trkpt lat="45.64472" lon="4.41206">
        <ele>570.6</ele>
        <extensions>
          <visugpx:TrkExtension xmlns:visugpx="https://www.visugpx.com/editgpx/">
            <visugpx:node>19</visugpx:node>
            </visugpx:TrkExtension>
        </extensions>
      </trkpt>
      <trkpt lat="45.64664" lon="4.4135">
        <ele>591</ele>
        <extensions>
          <visugpx:TrkExtension xmlns:visugpx="https://www.visugpx.com/editgpx/">
            <visugpx:node>20</visugpx:node>
            </visugpx:TrkExtension>
        </extensions>
      </trkpt>
      <trkpt lat="45.64921" lon="4.41187">
        <ele>619.8</ele>
        <extensions>
          <visugpx:TrkExtension xmlns:visugpx="https://www.visugpx.com/editgpx/">
            <visugpx:node>21</visugpx:node>
            </visugpx:TrkExtension>
        </extensions>
      </trkpt>
      <trkpt lat="45.65303" lon="4.41245">
        <ele>650.9</ele>
        <extensions>
          <visugpx:TrkExtension xmlns:visugpx="https://www.visugpx.com/editgpx/">
            <visugpx:node>22</visugpx:node>
            </visugpx:TrkExtension>
        </extensions>
      </trkpt>
      <trkpt lat="45.65326" lon="4.41273">
        <ele>650</ele>
        <extensions>
          <visugpx:TrkExtension xmlns:visugpx="https://www.visugpx.com/editgpx/">
            <visugpx:node>23</visugpx:node>
            </visugpx:TrkExtension>
        </extensions>
      </trkpt>
      <trkpt lat="45.65371" lon="4.41181">
        <ele>648.8</ele>
        <extensions>
          <visugpx:TrkExtension xmlns:visugpx="https://www.visugpx.com/editgpx/">
            <visugpx:node>24</visugpx:node>
            </visugpx:TrkExtension>
        </extensions>
      </trkpt>
      <trkpt lat="45.65363" lon="4.41054">
        <ele>651.8</ele>
        <extensions>
          <visugpx:TrkExtension xmlns:visugpx="https://www.visugpx.com/editgpx/">
            <visugpx:node>25</visugpx:node>
            </visugpx:TrkExtension>
        </extensions>
      </trkpt>
      <trkpt lat="45.65431" lon="4.40943">
        <ele>654.5</ele>
        <extensions>
          <visugpx:TrkExtension xmlns:visugpx="https://www.visugpx.com/editgpx/">
            <visugpx:node>26</visugpx:node>
            </visugpx:TrkExtension>
        </extensions>
      </trkpt>
      <trkpt lat="45.65444" lon="4.40836">
        <ele>706.7</ele>
        <time>2026-03-01T13:10:27.000Z</time>
      </trkpt>
      <trkpt lat="45.65414" lon="4.40758">
        <ele>702.5</ele>
        <time>2026-03-01T13:11:27.000Z</time>
      </trkpt>
      <trkpt lat="45.65349" lon="4.40795">
        <ele>707.3</ele>
        <time>2026-03-01T13:12:27.000Z</time>
      </trkpt>
      <trkpt lat="45.65281" lon="4.40843">
        <ele>711.4</ele>
        <time>2026-03-01T13:13:27.000Z</time>
      </trkpt>
      <trkpt lat="45.65208" lon="4.40887">
        <ele>714.4</ele>
        <time>2026-03-01T13:14:27.000Z</time>
      </trkpt>
      <trkpt lat="45.65162" lon="4.40895">
        <ele>718.9</ele>
        <time>2026-03-01T13:15:27.000Z</time>
      </trkpt>
      <trkpt lat="45.65215" lon="4.40808">
        <ele>713.1</ele>
        <time>2026-03-01T13:16:27.000Z</time>
      </trkpt>
      <trkpt lat="45.6523" lon="4.407">
        <ele>704.2</ele>
        <time>2026-03-01T13:17:27.000Z</time>
      </trkpt>
      <trkpt lat="45.65222" lon="4.40693">
        <ele>706.3</ele>
        <time>2026-03-01T13:18:28.000Z</time>
      </trkpt>
      <trkpt lat="45.65217" lon="4.40692">
        <ele>706.4</ele>
        <time>2026-03-01T13:19:28.000Z</time>
      </trkpt>
      <trkpt lat="45.65217" lon="4.40691">
        <ele>705</ele>
        <time>2026-03-01T13:26:54.000Z</time>
      </trkpt>
      <trkpt lat="45.65215" lon="4.40691">
        <ele>704.3</ele>
        <time>2026-03-01T13:37:50.000Z</time>
      </trkpt>
      <trkpt lat="45.65212" lon="4.40687">
        <ele>703</ele>
        <time>2026-03-01T13:39:47.000Z</time>
      </trkpt>
      <trkpt lat="45.65151" lon="4.40613">
        <ele>703.4</ele>
        <time>2026-03-01T13:40:47.000Z</time>
      </trkpt>
      <trkpt lat="45.65145" lon="4.405">
        <ele>703.7</ele>
        <time>2026-03-01T13:41:47.000Z</time>
      </trkpt>
      <trkpt lat="45.65145" lon="4.40388">
        <ele>700.5</ele>
        <time>2026-03-01T13:42:47.000Z</time>
      </trkpt>
      <trkpt lat="45.65163" lon="4.40283">
        <ele>690.2</ele>
        <time>2026-03-01T13:43:47.000Z</time>
      </trkpt>
      <trkpt lat="45.65204" lon="4.40201">
        <ele>678.2</ele>
        <time>2026-03-01T13:44:47.000Z</time>
      </trkpt>
      <trkpt lat="45.65272" lon="4.40138">
        <ele>668.4</ele>
        <time>2026-03-01T13:45:47.000Z</time>
      </trkpt>
      <trkpt lat="45.65338" lon="4.40079">
        <ele>660.4</ele>
        <time>2026-03-01T13:46:47.000Z</time>
      </trkpt>
      <trkpt lat="45.65399" lon="4.4001">
        <ele>647.9</ele>
        <time>2026-03-01T13:47:47.000Z</time>
      </trkpt>
      <trkpt lat="45.65461" lon="4.39944">
        <ele>639.7</ele>
        <time>2026-03-01T13:48:47.000Z</time>
      </trkpt>
      <trkpt lat="45.65519" lon="4.39867">
        <ele>641.9</ele>
        <time>2026-03-01T13:49:47.000Z</time>
      </trkpt>
      <trkpt lat="45.65581" lon="4.39795">
        <ele>648.7</ele>
        <time>2026-03-01T13:50:47.000Z</time>
      </trkpt>
      <trkpt lat="45.65548" lon="4.39695">
        <ele>647.2</ele>
        <time>2026-03-01T13:51:47.000Z</time>
      </trkpt>
      <trkpt lat="45.65505" lon="4.39593">
        <ele>644.8</ele>
        <time>2026-03-01T13:52:47.000Z</time>
      </trkpt>
      <trkpt lat="45.65464" lon="4.39489">
        <ele>644.1</ele>
        <time>2026-03-01T13:53:47.000Z</time>
      </trkpt>
      <trkpt lat="45.65413" lon="4.39395">
        <ele>635.1</ele>
        <time>2026-03-01T13:54:47.000Z</time>
      </trkpt>
      <trkpt lat="45.65378" lon="4.39291">
        <ele>629.3</ele>
        <time>2026-03-01T13:55:47.000Z</time>
      </trkpt>
      <trkpt lat="45.65433" lon="4.39326">
        <ele>622.9</ele>
        <time>2026-03-01T13:56:47.000Z</time>
      </trkpt>
      <trkpt lat="45.65519" lon="4.39342">
        <ele>619.8</ele>
        <time>2026-03-01T13:57:47.000Z</time>
      </trkpt>
      <trkpt lat="45.65599" lon="4.39346">
        <ele>612.6</ele>
        <time>2026-03-01T13:58:47.000Z</time>
      </trkpt>
      <trkpt lat="45.65686" lon="4.39343">
        <ele>607.8</ele>
        <time>2026-03-01T13:59:47.000Z</time>
      </trkpt>
      <trkpt lat="45.65761" lon="4.39373">
        <ele>597.6</ele>
        <time>2026-03-01T14:00:47.000Z</time>
      </trkpt>
      <trkpt lat="45.65824" lon="4.39432">
        <ele>592.7</ele>
        <time>2026-03-01T14:01:47.000Z</time>
      </trkpt>
      <trkpt lat="45.65902" lon="4.39426">
        <ele>592.7</ele>
        <time>2026-03-01T14:02:47.000Z</time>
      </trkpt>
      <trkpt lat="45.65971" lon="4.39474">
        <ele>585.8</ele>
        <time>2026-03-01T14:03:47.000Z</time>
      </trkpt>
      <trkpt lat="45.66034" lon="4.39532">
        <ele>576.4</ele>
        <time>2026-03-01T14:04:47.000Z</time>
      </trkpt>
      <trkpt lat="45.66026" lon="4.39633">
        <ele>566.8</ele>
        <time>2026-03-01T14:05:47.000Z</time>
      </trkpt>
      <trkpt lat="45.66012" lon="4.39629">
        <ele>567.6</ele>
        <time>2026-03-01T14:07:17.000Z</time>
      </trkpt>
      <trkpt lat="45.66082" lon="4.39671">
        <ele>566.9</ele>
        <time>2026-03-01T14:08:17.000Z</time>
      </trkpt>
      <trkpt lat="45.66158" lon="4.39721">
        <ele>565.3</ele>
        <time>2026-03-01T14:09:17.000Z</time>
      </trkpt>
      <trkpt lat="45.66228" lon="4.39779">
        <ele>561.4</ele>
        <time>2026-03-01T14:10:17.000Z</time>
      </trkpt>
      <trkpt lat="45.66286" lon="4.39847">
        <ele>557</ele>
        <time>2026-03-01T14:11:17.000Z</time>
      </trkpt>
      <trkpt lat="45.66291" lon="4.39954">
        <ele>547.3</ele>
        <time>2026-03-01T14:12:17.000Z</time>
      </trkpt>
      <trkpt lat="45.66245" lon="4.40007">
        <ele>550.8</ele>
        <time>2026-03-01T14:13:17.000Z</time>
      </trkpt>
      <trkpt lat="45.66218" lon="4.40075">
        <ele>554.9</ele>
        <time>2026-03-01T14:14:17.000Z</time>
      </trkpt>
      <trkpt lat="45.66271" lon="4.40124">
        <ele>558.1</ele>
        <time>2026-03-01T14:15:17.000Z</time>
      </trkpt>
      <trkpt lat="45.66322" lon="4.40191">
        <ele>561.5</ele>
        <time>2026-03-01T14:16:17.000Z</time>
      </trkpt>
      <trkpt lat="45.66344" lon="4.40272">
        <ele>569.7</ele>
        <time>2026-03-01T14:17:17.000Z</time>
      </trkpt>
      <trkpt lat="45.66333" lon="4.40252">
        <ele>569.6</ele>
        <time>2026-03-01T14:18:17.000Z</time>
      </trkpt>
      <trkpt lat="45.66307" lon="4.40235">
        <ele>575.5</ele>
        <time>2026-03-01T14:19:17.000Z</time>
      </trkpt>
      <trkpt lat="45.66265" lon="4.40263">
        <ele>584.1</ele>
        <time>2026-03-01T14:20:17.000Z</time>
      </trkpt>
      <trkpt lat="45.66251" lon="4.40321">
        <ele>590.8</ele>
        <time>2026-03-01T14:21:17.000Z</time>
      </trkpt>
      <trkpt lat="45.66262" lon="4.40387">
        <ele>597.6</ele>
        <time>2026-03-01T14:22:17.000Z</time>
      </trkpt>
      <trkpt lat="45.66261" lon="4.40459">
        <ele>605.3</ele>
        <time>2026-03-01T14:23:17.000Z</time>
      </trkpt>
      <trkpt lat="45.66216" lon="4.40434">
        <ele>617</ele>
        <time>2026-03-01T14:24:17.000Z</time>
      </trkpt>
      <trkpt lat="45.66188" lon="4.40514">
        <ele>625.4</ele>
        <time>2026-03-01T14:25:17.000Z</time>
      </trkpt>
      <trkpt lat="45.66141" lon="4.40577">
        <ele>639.2</ele>
        <time>2026-03-01T14:26:17.000Z</time>
      </trkpt>
      <trkpt lat="45.66088" lon="4.40643">
        <ele>644.3</ele>
        <time>2026-03-01T14:27:17.000Z</time>
      </trkpt>
      <trkpt lat="45.66035" lon="4.40708">
        <ele>651.8</ele>
        <time>2026-03-01T14:28:17.000Z</time>
      </trkpt>
      <trkpt lat="45.65971" lon="4.40773">
        <ele>652.4</ele>
        <time>2026-03-01T14:29:17.000Z</time>
      </trkpt>
      <trkpt lat="45.65907" lon="4.40837">
        <ele>654</ele>
        <time>2026-03-01T14:30:17.000Z</time>
      </trkpt>
      <trkpt lat="45.65908" lon="4.40934">
        <ele>658.6</ele>
        <time>2026-03-01T14:31:17.000Z</time>
      </trkpt>
      <trkpt lat="45.6593" lon="4.41044">
        <ele>664.2</ele>
        <time>2026-03-01T14:32:17.000Z</time>
      </trkpt>
      <trkpt lat="45.65935" lon="4.41153">
        <ele>663.7</ele>
        <time>2026-03-01T14:33:17.000Z</time>
      </trkpt>
      <trkpt lat="45.65871" lon="4.4121">
        <ele>669.3</ele>
        <time>2026-03-01T14:34:17.000Z</time>
      </trkpt>
      <trkpt lat="45.65803" lon="4.41262">
        <ele>675.4</ele>
        <time>2026-03-01T14:35:17.000Z</time>
      </trkpt>
      <trkpt lat="45.65745" lon="4.41325">
        <ele>686.6</ele>
        <time>2026-03-01T14:36:17.000Z</time>
      </trkpt>
      <trkpt lat="45.65702" lon="4.4141">
        <ele>694.3</ele>
        <time>2026-03-01T14:37:17.000Z</time>
      </trkpt>
      <trkpt lat="45.65658" lon="4.41498">
        <ele>702.5</ele>
        <time>2026-03-01T14:38:17.000Z</time>
      </trkpt>
      <trkpt lat="45.65606" lon="4.41584">
        <ele>707.4</ele>
        <time>2026-03-01T14:39:17.000Z</time>
      </trkpt>
      <trkpt lat="45.65568" lon="4.41655">
        <ele>704.3</ele>
        <time>2026-03-01T14:40:17.000Z</time>
      </trkpt>
      <trkpt lat="45.65548" lon="4.41713">
        <ele>708</ele>
        <time>2026-03-01T14:41:17.000Z</time>
      </trkpt>
      <trkpt lat="45.65473" lon="4.41753">
        <ele>698.4</ele>
        <time>2026-03-01T14:42:17.000Z</time>
      </trkpt>
      <trkpt lat="45.65479" lon="4.41864">
        <ele>698.7</ele>
        <time>2026-03-01T14:43:17.000Z</time>
      </trkpt>
      <trkpt lat="45.65416" lon="4.41909">
        <ele>699.7</ele>
        <time>2026-03-01T14:44:17.000Z</time>
      </trkpt>
      <trkpt lat="45.65397" lon="4.41937">
        <ele>698.6</ele>
        <time>2026-03-01T14:45:17.000Z</time>
      </trkpt>
      <trkpt lat="45.65398" lon="4.41938">
        <ele>699.8</ele>
        <time>2026-03-01T14:46:21.000Z</time>
      </trkpt>
      <trkpt lat="45.65406" lon="4.41945">
        <ele>701.4</ele>
        <time>2026-03-01T14:47:30.000Z</time>
      </trkpt>
      <trkpt lat="45.65424" lon="4.41944">
        <ele>703</ele>
        <time>2026-03-01T14:48:30.000Z</time>
        <extensions>
          <visugpx:TrkExtension xmlns:visugpx="https://www.visugpx.com/editgpx/">
            <visugpx:node>27</visugpx:node>
            </visugpx:TrkExtension>
        </extensions>
      </trkpt>
    </trkseg>
  </trk>
</gpx>